sensor_id;sensor_type;location;lat;lon;timestamp;P1;durP1;ratioP1;P2;durP2;ratioP2
59587;SDS011;45412;54.472;18.464;2024-03-17T00:02:07;14.90;;;3.00;;
59587;SDS011;45412;54.472;18.464;2024-03-17T00:04:54;15.90;;;2.60;;
59587;SDS011;45412;54.472;18.464;2024-03-17T00:07:41;15.30;;;2.20;;
59587;SDS011;45412;54.472;18.464;2024-03-17T00:10:28;14.70;;;2.60;;
59587;SDS011;45412;54.472;18.464;2024-03-17T00:13:17;13.40;;;2.50;;
59587;SDS011;45412;54.472;18.464;2024-03-17T00:16:04;14.10;;;2.40;;
59587;SDS011;45412;54.472;18.464;2024-03-17T00:18:52;13.30;;;2.40;;
59587;SDS011;45412;54.472;18.464;2024-03-17T00:21:39;11.80;;;2.30;;
59587;SDS011;45412;54.472;18.464;2024-03-17T00:24:26;9.20;;;2.00;;
59587;SDS011;45412;54.472;18.464;2024-03-17T00:27:20;14.00;;;2.20;;
59587;SDS011;45412;54.472;18.464;2024-03-17T00:30:07;13.00;;;2.30;;
59587;SDS011;45412;54.472;18.464;2024-03-17T00:32:59;12.20;;;2.20;;
59587;SDS011;45412;54.472;18.464;2024-03-17T00:35:45;13.70;;;2.20;;
59587;SDS011;45412;54.472;18.464;2024-03-17T00:38:32;11.60;;;2.00;;
59587;SDS011;45412;54.472;18.464;2024-03-17T00:41:19;11.60;;;2.10;;
59587;SDS011;45412;54.472;18.464;2024-03-17T00:44:07;13.70;;;2.20;;
59587;SDS011;45412;54.472;18.464;2024-03-17T00:46:54;13.20;;;2.30;;
59587;SDS011;45412;54.472;18.464;2024-03-17T00:49:41;10.20;;;1.60;;
59587;SDS011;45412;54.472;18.464;2024-03-17T00:52:28;15.60;;;2.80;;
59587;SDS011;45412;54.472;18.464;2024-03-17T00:55:14;15.30;;;2.20;;
59587;SDS011;45412;54.472;18.464;2024-03-17T00:58:01;11.80;;;2.10;;
59587;SDS011;45412;54.472;18.464;2024-03-17T01:00:48;9.80;;;1.90;;
59587;SDS011;45412;54.472;18.464;2024-03-17T01:03:35;16.40;;;2.40;;
59587;SDS011;45412;54.472;18.464;2024-03-17T01:06:22;13.10;;;2.10;;
59587;SDS011;45412;54.472;18.464;2024-03-17T01:09:09;8.90;;;1.50;;
59587;SDS011;45412;54.472;18.464;2024-03-17T01:11:56;10.50;;;1.90;;
59587;SDS011;45412;54.472;18.464;2024-03-17T01:14:43;10.40;;;1.70;;
59587;SDS011;45412;54.472;18.464;2024-03-17T01:17:30;9.10;;;1.90;;
59587;SDS011;45412;54.472;18.464;2024-03-17T01:20:17;11.30;;;1.90;;
59587;SDS011;45412;54.472;18.464;2024-03-17T01:23:04;9.80;;;2.00;;
59587;SDS011;45412;54.472;18.464;2024-03-17T01:25:51;10.90;;;1.90;;
59587;SDS011;45412;54.472;18.464;2024-03-17T01:28:38;11.00;;;2.00;;
59587;SDS011;45412;54.472;18.464;2024-03-17T01:31:25;9.90;;;1.80;;
59587;SDS011;45412;54.472;18.464;2024-03-17T01:34:11;11.20;;;1.90;;
59587;SDS011;45412;54.472;18.464;2024-03-17T01:36:59;9.40;;;1.90;;
59587;SDS011;45412;54.472;18.464;2024-03-17T01:39:45;8.50;;;1.70;;
59587;SDS011;45412;54.472;18.464;2024-03-17T01:42:32;7.30;;;2.00;;
59587;SDS011;45412;54.472;18.464;2024-03-17T01:45:32;7.90;;;1.60;;
59587;SDS011;45412;54.472;18.464;2024-03-17T01:48:18;6.50;;;1.40;;
59587;SDS011;45412;54.472;18.464;2024-03-17T01:51:06;8.00;;;1.70;;
59587;SDS011;45412;54.472;18.464;2024-03-17T01:53:53;6.40;;;1.50;;
59587;SDS011;45412;54.472;18.464;2024-03-17T01:56:42;8.70;;;1.60;;
59587;SDS011;45412;54.472;18.464;2024-03-17T01:59:29;9.20;;;1.60;;
59587;SDS011;45412;54.472;18.464;2024-03-17T02:02:16;7.00;;;1.60;;
59587;SDS011;45412;54.472;18.464;2024-03-17T02:05:03;6.60;;;1.60;;
59587;SDS011;45412;54.472;18.464;2024-03-17T02:07:53;8.30;;;1.50;;
59587;SDS011;45412;54.472;18.464;2024-03-17T02:10:39;6.80;;;1.40;;
59587;SDS011;45412;54.472;18.464;2024-03-17T02:13:26;7.30;;;1.30;;
59587;SDS011;45412;54.472;18.464;2024-03-17T02:16:13;6.70;;;1.20;;
59587;SDS011;45412;54.472;18.464;2024-03-17T02:19:00;5.70;;;1.70;;
59587;SDS011;45412;54.472;18.464;2024-03-17T02:21:47;6.60;;;1.30;;
59587;SDS011;45412;54.472;18.464;2024-03-17T02:24:34;6.50;;;1.30;;
59587;SDS011;45412;54.472;18.464;2024-03-17T02:27:20;6.40;;;1.20;;
59587;SDS011;45412;54.472;18.464;2024-03-17T02:30:08;7.20;;;1.50;;
59587;SDS011;45412;54.472;18.464;2024-03-17T02:32:55;5.80;;;1.20;;
59587;SDS011;45412;54.472;18.464;2024-03-17T02:35:42;5.00;;;1.10;;
59587;SDS011;45412;54.472;18.464;2024-03-17T02:38:28;8.30;;;1.60;;
59587;SDS011;45412;54.472;18.464;2024-03-17T02:41:36;6.20;;;1.50;;
59587;SDS011;45412;54.472;18.464;2024-03-17T02:44:23;6.60;;;1.50;;
59587;SDS011;45412;54.472;18.464;2024-03-17T02:47:09;6.00;;;1.40;;
59587;SDS011;45412;54.472;18.464;2024-03-17T02:49:56;7.10;;;1.30;;
59587;SDS011;45412;54.472;18.464;2024-03-17T02:52:42;5.60;;;1.20;;
59587;SDS011;45412;54.472;18.464;2024-03-17T02:55:29;6.30;;;1.30;;
59587;SDS011;45412;54.472;18.464;2024-03-17T02:58:16;5.50;;;1.30;;
59587;SDS011;45412;54.472;18.464;2024-03-17T03:01:04;5.40;;;1.30;;
59587;SDS011;45412;54.472;18.464;2024-03-17T03:03:51;5.30;;;1.20;;
59587;SDS011;45412;54.472;18.464;2024-03-17T03:06:38;5.30;;;1.20;;
59587;SDS011;45412;54.472;18.464;2024-03-17T03:09:25;7.40;;;1.30;;
59587;SDS011;45412;54.472;18.464;2024-03-17T03:12:17;6.80;;;1.20;;
59587;SDS011;45412;54.472;18.464;2024-03-17T03:15:04;7.10;;;1.70;;
59587;SDS011;45412;54.472;18.464;2024-03-17T03:17:51;6.70;;;1.60;;
59587;SDS011;45412;54.472;18.464;2024-03-17T03:20:38;5.80;;;1.30;;
59587;SDS011;45412;54.472;18.464;2024-03-17T03:23:24;5.90;;;1.50;;
59587;SDS011;45412;54.472;18.464;2024-03-17T03:26:11;9.20;;;1.40;;
59587;SDS011;45412;54.472;18.464;2024-03-17T03:28:58;6.10;;;1.40;;
59587;SDS011;45412;54.472;18.464;2024-03-17T03:31:45;4.70;;;1.20;;
59587;SDS011;45412;54.472;18.464;2024-03-17T03:34:31;7.50;;;1.80;;
59587;SDS011;45412;54.472;18.464;2024-03-17T03:37:18;8.00;;;1.60;;
59587;SDS011;45412;54.472;18.464;2024-03-17T03:40:05;7.20;;;1.50;;
59587;SDS011;45412;54.472;18.464;2024-03-17T03:43:02;5.30;;;1.70;;
59587;SDS011;45412;54.472;18.464;2024-03-17T03:45:49;5.40;;;1.50;;
59587;SDS011;45412;54.472;18.464;2024-03-17T03:48:36;6.00;;;1.60;;
59587;SDS011;45412;54.472;18.464;2024-03-17T03:51:22;6.70;;;1.40;;
59587;SDS011;45412;54.472;18.464;2024-03-17T03:54:10;6.00;;;1.40;;
59587;SDS011;45412;54.472;18.464;2024-03-17T03:56:58;6.50;;;1.60;;
59587;SDS011;45412;54.472;18.464;2024-03-17T03:59:45;7.30;;;1.60;;
59587;SDS011;45412;54.472;18.464;2024-03-17T04:02:32;7.30;;;1.60;;
59587;SDS011;45412;54.472;18.464;2024-03-17T04:05:21;5.60;;;1.50;;
59587;SDS011;45412;54.472;18.464;2024-03-17T04:08:08;4.80;;;1.20;;
59587;SDS011;45412;54.472;18.464;2024-03-17T04:10:55;5.70;;;1.50;;
59587;SDS011;45412;54.472;18.464;2024-03-17T04:13:42;8.10;;;2.00;;
59587;SDS011;45412;54.472;18.464;2024-03-17T04:16:29;7.30;;;1.60;;
59587;SDS011;45412;54.472;18.464;2024-03-17T04:19:17;5.20;;;1.20;;
59587;SDS011;45412;54.472;18.464;2024-03-17T04:22:04;6.70;;;1.50;;
59587;SDS011;45412;54.472;18.464;2024-03-17T04:24:51;7.50;;;1.70;;
59587;SDS011;45412;54.472;18.464;2024-03-17T04:27:42;7.80;;;1.60;;
59587;SDS011;45412;54.472;18.464;2024-03-17T04:30:30;7.00;;;1.70;;
59587;SDS011;45412;54.472;18.464;2024-03-17T04:33:18;6.10;;;1.70;;
59587;SDS011;45412;54.472;18.464;2024-03-17T04:36:05;6.20;;;1.60;;
59587;SDS011;45412;54.472;18.464;2024-03-17T04:38:52;8.00;;;1.60;;
59587;SDS011;45412;54.472;18.464;2024-03-17T04:41:40;6.70;;;1.70;;
59587;SDS011;45412;54.472;18.464;2024-03-17T04:44:29;7.30;;;1.40;;
59587;SDS011;45412;54.472;18.464;2024-03-17T04:47:16;5.10;;;1.10;;
59587;SDS011;45412;54.472;18.464;2024-03-17T04:50:03;5.30;;;1.70;;
59587;SDS011;45412;54.472;18.464;2024-03-17T04:52:50;6.50;;;1.70;;
59587;SDS011;45412;54.472;18.464;2024-03-17T04:55:37;4.90;;;1.40;;
59587;SDS011;45412;54.472;18.464;2024-03-17T04:58:24;5.80;;;1.40;;
59587;SDS011;45412;54.472;18.464;2024-03-17T05:01:11;5.00;;;1.30;;
59587;SDS011;45412;54.472;18.464;2024-03-17T05:03:59;6.00;;;1.60;;
59587;SDS011;45412;54.472;18.464;2024-03-17T05:06:46;6.20;;;2.00;;
59587;SDS011;45412;54.472;18.464;2024-03-17T05:09:33;7.00;;;2.10;;
59587;SDS011;45412;54.472;18.464;2024-03-17T05:12:20;8.00;;;3.20;;
59587;SDS011;45412;54.472;18.464;2024-03-17T05:15:06;9.70;;;2.50;;
59587;SDS011;45412;54.472;18.464;2024-03-17T05:17:54;9.20;;;2.90;;
59587;SDS011;45412;54.472;18.464;2024-03-17T05:20:40;6.80;;;2.40;;
59587;SDS011;45412;54.472;18.464;2024-03-17T05:23:28;7.50;;;2.50;;
59587;SDS011;45412;54.472;18.464;2024-03-17T05:26:15;7.50;;;2.20;;
59587;SDS011;45412;54.472;18.464;2024-03-17T05:29:02;6.60;;;1.60;;
59587;SDS011;45412;54.472;18.464;2024-03-17T05:31:52;4.80;;;1.20;;
59587;SDS011;45412;54.472;18.464;2024-03-17T05:34:42;5.30;;;1.30;;
59587;SDS011;45412;54.472;18.464;2024-03-17T05:37:29;4.90;;;1.20;;
59587;SDS011;45412;54.472;18.464;2024-03-17T05:40:17;4.70;;;1.30;;
59587;SDS011;45412;54.472;18.464;2024-03-17T05:43:03;8.70;;;1.60;;
59587;SDS011;45412;54.472;18.464;2024-03-17T05:45:54;9.60;;;1.90;;
59587;SDS011;45412;54.472;18.464;2024-03-17T05:48:42;10.80;;;1.70;;
59587;SDS011;45412;54.472;18.464;2024-03-17T05:51:29;9.10;;;1.80;;
59587;SDS011;45412;54.472;18.464;2024-03-17T05:54:16;12.60;;;2.60;;
59587;SDS011;45412;54.472;18.464;2024-03-17T05:57:03;8.00;;;1.80;;
59587;SDS011;45412;54.472;18.464;2024-03-17T05:59:50;5.30;;;1.60;;
59587;SDS011;45412;54.472;18.464;2024-03-17T06:02:37;6.00;;;1.40;;
59587;SDS011;45412;54.472;18.464;2024-03-17T06:05:23;7.00;;;1.40;;
59587;SDS011;45412;54.472;18.464;2024-03-17T06:08:10;6.70;;;1.30;;
59587;SDS011;45412;54.472;18.464;2024-03-17T06:10:57;4.70;;;1.20;;
59587;SDS011;45412;54.472;18.464;2024-03-17T06:13:46;4.80;;;1.20;;
59587;SDS011;45412;54.472;18.464;2024-03-17T06:16:33;10.70;;;2.20;;
59587;SDS011;45412;54.472;18.464;2024-03-17T06:19:20;7.50;;;1.70;;
59587;SDS011;45412;54.472;18.464;2024-03-17T06:22:07;7.50;;;1.40;;
59587;SDS011;45412;54.472;18.464;2024-03-17T06:24:53;6.20;;;1.30;;
59587;SDS011;45412;54.472;18.464;2024-03-17T06:27:40;4.60;;;1.10;;
59587;SDS011;45412;54.472;18.464;2024-03-17T06:30:27;6.20;;;1.50;;
59587;SDS011;45412;54.472;18.464;2024-03-17T06:33:18;7.40;;;1.40;;
59587;SDS011;45412;54.472;18.464;2024-03-17T06:36:06;7.40;;;1.20;;
59587;SDS011;45412;54.472;18.464;2024-03-17T06:38:53;7.90;;;1.30;;
59587;SDS011;45412;54.472;18.464;2024-03-17T06:41:40;8.90;;;1.50;;
59587;SDS011;45412;54.472;18.464;2024-03-17T06:44:27;7.00;;;1.50;;
59587;SDS011;45412;54.472;18.464;2024-03-17T06:47:16;7.60;;;1.60;;
59587;SDS011;45412;54.472;18.464;2024-03-17T06:50:04;5.90;;;1.40;;
59587;SDS011;45412;54.472;18.464;2024-03-17T06:52:51;3.90;;;1.00;;
59587;SDS011;45412;54.472;18.464;2024-03-17T06:55:38;4.40;;;0.90;;
59587;SDS011;45412;54.472;18.464;2024-03-17T06:58:26;5.00;;;1.10;;
59587;SDS011;45412;54.472;18.464;2024-03-17T07:01:14;5.50;;;1.40;;
59587;SDS011;45412;54.472;18.464;2024-03-17T07:04:00;5.10;;;1.10;;
59587;SDS011;45412;54.472;18.464;2024-03-17T07:06:47;3.90;;;0.90;;
59587;SDS011;45412;54.472;18.464;2024-03-17T07:09:34;6.70;;;1.50;;
59587;SDS011;45412;54.472;18.464;2024-03-17T07:12:20;4.30;;;1.10;;
59587;SDS011;45412;54.472;18.464;2024-03-17T07:15:08;4.40;;;1.10;;
59587;SDS011;45412;54.472;18.464;2024-03-17T07:17:57;3.90;;;1.00;;
59587;SDS011;45412;54.472;18.464;2024-03-17T07:20:44;3.90;;;1.10;;
59587;SDS011;45412;54.472;18.464;2024-03-17T07:23:32;4.60;;;1.00;;
59587;SDS011;45412;54.472;18.464;2024-03-17T07:26:19;5.50;;;1.30;;
59587;SDS011;45412;54.472;18.464;2024-03-17T07:29:06;4.30;;;1.30;;
59587;SDS011;45412;54.472;18.464;2024-03-17T07:31:54;7.00;;;1.40;;
59587;SDS011;45412;54.472;18.464;2024-03-17T07:34:41;4.10;;;1.00;;
59587;SDS011;45412;54.472;18.464;2024-03-17T07:37:27;5.30;;;1.20;;
59587;SDS011;45412;54.472;18.464;2024-03-17T07:40:14;7.10;;;1.40;;
59587;SDS011;45412;54.472;18.464;2024-03-17T07:43:02;6.30;;;1.20;;
59587;SDS011;45412;54.472;18.464;2024-03-17T07:45:59;6.30;;;1.30;;
59587;SDS011;45412;54.472;18.464;2024-03-17T07:48:53;7.00;;;1.70;;
59587;SDS011;45412;54.472;18.464;2024-03-17T07:51:40;5.90;;;1.50;;
59587;SDS011;45412;54.472;18.464;2024-03-17T07:54:26;5.40;;;1.10;;
59587;SDS011;45412;54.472;18.464;2024-03-17T07:57:13;5.00;;;1.40;;
59587;SDS011;45412;54.472;18.464;2024-03-17T08:00:00;5.10;;;1.40;;
59587;SDS011;45412;54.472;18.464;2024-03-17T08:02:49;4.50;;;1.30;;
59587;SDS011;45412;54.472;18.464;2024-03-17T08:05:35;5.90;;;1.30;;
59587;SDS011;45412;54.472;18.464;2024-03-17T08:08:21;7.80;;;1.20;;
59587;SDS011;45412;54.472;18.464;2024-03-17T08:11:08;6.00;;;1.50;;
59587;SDS011;45412;54.472;18.464;2024-03-17T08:13:54;4.50;;;1.30;;
59587;SDS011;45412;54.472;18.464;2024-03-17T08:16:41;7.80;;;1.60;;
59587;SDS011;45412;54.472;18.464;2024-03-17T08:19:27;4.60;;;1.10;;
59587;SDS011;45412;54.472;18.464;2024-03-17T08:22:14;4.90;;;1.50;;
59587;SDS011;45412;54.472;18.464;2024-03-17T08:25:03;6.70;;;1.60;;
59587;SDS011;45412;54.472;18.464;2024-03-17T08:27:51;4.70;;;1.20;;
59587;SDS011;45412;54.472;18.464;2024-03-17T08:30:38;5.60;;;1.10;;
59587;SDS011;45412;54.472;18.464;2024-03-17T08:33:25;6.60;;;1.80;;
59587;SDS011;45412;54.472;18.464;2024-03-17T08:36:11;6.70;;;1.80;;
59587;SDS011;45412;54.472;18.464;2024-03-17T08:38:58;5.80;;;1.60;;
59587;SDS011;45412;54.472;18.464;2024-03-17T08:41:45;5.40;;;1.60;;
59587;SDS011;45412;54.472;18.464;2024-03-17T08:44:31;5.90;;;1.60;;
59587;SDS011;45412;54.472;18.464;2024-03-17T08:47:17;4.60;;;1.20;;
59587;SDS011;45412;54.472;18.464;2024-03-17T08:50:04;5.70;;;1.20;;
59587;SDS011;45412;54.472;18.464;2024-03-17T08:52:53;4.80;;;1.30;;
59587;SDS011;45412;54.472;18.464;2024-03-17T08:55:40;5.60;;;1.60;;
59587;SDS011;45412;54.472;18.464;2024-03-17T08:58:27;5.30;;;1.20;;
59587;SDS011;45412;54.472;18.464;2024-03-17T09:01:14;5.50;;;1.20;;
59587;SDS011;45412;54.472;18.464;2024-03-17T09:04:02;4.50;;;1.20;;
59587;SDS011;45412;54.472;18.464;2024-03-17T09:06:48;5.60;;;1.30;;
59587;SDS011;45412;54.472;18.464;2024-03-17T09:09:35;5.30;;;1.30;;
59587;SDS011;45412;54.472;18.464;2024-03-17T09:12:21;6.60;;;1.90;;
59587;SDS011;45412;54.472;18.464;2024-03-17T09:15:08;5.70;;;1.40;;
59587;SDS011;45412;54.472;18.464;2024-03-17T09:17:58;5.30;;;1.30;;
59587;SDS011;45412;54.472;18.464;2024-03-17T09:20:45;6.90;;;1.30;;
59587;SDS011;45412;54.472;18.464;2024-03-17T09:23:33;4.20;;;1.20;;
59587;SDS011;45412;54.472;18.464;2024-03-17T09:26:20;6.70;;;1.20;;
59587;SDS011;45412;54.472;18.464;2024-03-17T09:29:07;5.00;;;1.30;;
59587;SDS011;45412;54.472;18.464;2024-03-17T09:31:53;5.50;;;1.30;;
59587;SDS011;45412;54.472;18.464;2024-03-17T09:34:39;4.70;;;1.30;;
59587;SDS011;45412;54.472;18.464;2024-03-17T09:37:25;5.10;;;1.20;;
59587;SDS011;45412;54.472;18.464;2024-03-17T09:40:13;5.90;;;1.40;;
59587;SDS011;45412;54.472;18.464;2024-03-17T09:43:01;7.10;;;1.60;;
59587;SDS011;45412;54.472;18.464;2024-03-17T09:45:49;6.00;;;1.30;;
59587;SDS011;45412;54.472;18.464;2024-03-17T09:48:36;5.80;;;1.30;;
59587;SDS011;45412;54.472;18.464;2024-03-17T09:51:24;6.40;;;1.70;;
59587;SDS011;45412;54.472;18.464;2024-03-17T09:54:18;6.10;;;1.70;;
59587;SDS011;45412;54.472;18.464;2024-03-17T09:57:08;7.40;;;1.90;;
59587;SDS011;45412;54.472;18.464;2024-03-17T10:00:13;9.10;;;2.90;;
59587;SDS011;45412;54.472;18.464;2024-03-17T10:03:00;6.80;;;1.60;;
59587;SDS011;45412;54.472;18.464;2024-03-17T10:05:47;5.70;;;1.30;;
59587;SDS011;45412;54.472;18.464;2024-03-17T10:08:49;4.50;;;1.00;;
59587;SDS011;45412;54.472;18.464;2024-03-17T10:11:37;4.70;;;1.20;;
59587;SDS011;45412;54.472;18.464;2024-03-17T10:14:23;5.50;;;1.40;;
59587;SDS011;45412;54.472;18.464;2024-03-17T10:17:09;5.00;;;1.30;;
59587;SDS011;45412;54.472;18.464;2024-03-17T10:23:06;5.20;;;1.00;;
59587;SDS011;45412;54.472;18.464;2024-03-17T10:25:54;5.70;;;1.30;;
59587;SDS011;45412;54.472;18.464;2024-03-17T10:28:43;5.20;;;1.30;;
59587;SDS011;45412;54.472;18.464;2024-03-17T10:31:30;5.10;;;1.20;;
59587;SDS011;45412;54.472;18.464;2024-03-17T10:34:16;4.70;;;1.10;;
59587;SDS011;45412;54.472;18.464;2024-03-17T10:37:17;5.40;;;1.20;;
59587;SDS011;45412;54.472;18.464;2024-03-17T10:40:10;5.00;;;1.10;;
59587;SDS011;45412;54.472;18.464;2024-03-17T10:43:01;6.30;;;1.60;;
59587;SDS011;45412;54.472;18.464;2024-03-17T10:45:49;6.10;;;1.90;;
59587;SDS011;45412;54.472;18.464;2024-03-17T10:48:35;6.60;;;1.50;;
59587;SDS011;45412;54.472;18.464;2024-03-17T10:51:22;6.80;;;1.50;;
59587;SDS011;45412;54.472;18.464;2024-03-17T10:54:08;5.60;;;1.70;;
59587;SDS011;45412;54.472;18.464;2024-03-17T11:00:22;5.40;;;1.50;;
59587;SDS011;45412;54.472;18.464;2024-03-17T11:03:08;5.60;;;1.50;;
59587;SDS011;45412;54.472;18.464;2024-03-17T11:05:57;5.20;;;1.20;;
59587;SDS011;45412;54.472;18.464;2024-03-17T11:08:45;5.00;;;1.30;;
59587;SDS011;45412;54.472;18.464;2024-03-17T11:11:38;5.40;;;1.40;;
59587;SDS011;45412;54.472;18.464;2024-03-17T11:14:27;4.70;;;1.20;;
59587;SDS011;45412;54.472;18.464;2024-03-17T11:17:18;5.40;;;1.30;;
59587;SDS011;45412;54.472;18.464;2024-03-17T11:20:31;5.00;;;1.30;;
59587;SDS011;45412;54.472;18.464;2024-03-17T11:23:28;6.00;;;1.80;;
59587;SDS011;45412;54.472;18.464;2024-03-17T11:26:18;6.30;;;1.90;;
59587;SDS011;45412;54.472;18.464;2024-03-17T11:29:29;7.50;;;1.50;;
59587;SDS011;45412;54.472;18.464;2024-03-17T11:32:25;5.40;;;1.20;;
59587;SDS011;45412;54.472;18.464;2024-03-17T11:35:14;5.30;;;1.40;;
59587;SDS011;45412;54.472;18.464;2024-03-17T11:38:00;5.40;;;1.40;;
59587;SDS011;45412;54.472;18.464;2024-03-17T11:40:46;7.50;;;1.50;;
59587;SDS011;45412;54.472;18.464;2024-03-17T11:43:33;5.40;;;1.70;;
59587;SDS011;45412;54.472;18.464;2024-03-17T11:46:20;4.70;;;1.30;;
59587;SDS011;45412;54.472;18.464;2024-03-17T11:49:22;6.70;;;1.50;;
59587;SDS011;45412;54.472;18.464;2024-03-17T11:52:12;6.60;;;1.70;;
59587;SDS011;45412;54.472;18.464;2024-03-17T11:54:59;6.00;;;1.70;;
59587;SDS011;45412;54.472;18.464;2024-03-17T11:57:45;5.50;;;1.80;;
59587;SDS011;45412;54.472;18.464;2024-03-17T12:00:31;4.90;;;1.20;;
59587;SDS011;45412;54.472;18.464;2024-03-17T12:03:18;5.10;;;1.40;;
59587;SDS011;45412;54.472;18.464;2024-03-17T12:06:05;5.40;;;1.40;;
59587;SDS011;45412;54.472;18.464;2024-03-17T12:08:51;5.00;;;1.40;;
59587;SDS011;45412;54.472;18.464;2024-03-17T12:11:38;6.50;;;1.50;;
59587;SDS011;45412;54.472;18.464;2024-03-17T12:14:25;5.10;;;1.40;;
59587;SDS011;45412;54.472;18.464;2024-03-17T12:17:12;5.10;;;1.40;;
59587;SDS011;45412;54.472;18.464;2024-03-17T12:20:00;5.10;;;1.50;;
59587;SDS011;45412;54.472;18.464;2024-03-17T12:22:47;4.90;;;1.20;;
59587;SDS011;45412;54.472;18.464;2024-03-17T12:25:34;5.40;;;1.30;;
59587;SDS011;45412;54.472;18.464;2024-03-17T12:28:20;6.10;;;1.30;;
59587;SDS011;45412;54.472;18.464;2024-03-17T12:31:07;5.80;;;1.50;;
59587;SDS011;45412;54.472;18.464;2024-03-17T12:33:54;4.80;;;1.30;;
59587;SDS011;45412;54.472;18.464;2024-03-17T12:36:40;5.30;;;1.30;;
59587;SDS011;45412;54.472;18.464;2024-03-17T12:42:28;5.50;;;1.20;;
59587;SDS011;45412;54.472;18.464;2024-03-17T12:45:19;4.60;;;1.20;;
59587;SDS011;45412;54.472;18.464;2024-03-17T12:48:12;7.00;;;2.30;;
59587;SDS011;45412;54.472;18.464;2024-03-17T12:50:59;5.60;;;1.40;;
59587;SDS011;45412;54.472;18.464;2024-03-17T12:53:46;5.60;;;1.70;;
59587;SDS011;45412;54.472;18.464;2024-03-17T12:56:32;4.50;;;1.00;;
59587;SDS011;45412;54.472;18.464;2024-03-17T12:59:40;5.00;;;1.20;;
59587;SDS011;45412;54.472;18.464;2024-03-17T13:03:00;4.30;;;1.00;;
59587;SDS011;45412;54.472;18.464;2024-03-17T13:05:47;5.50;;;1.50;;
59587;SDS011;45412;54.472;18.464;2024-03-17T13:08:34;5.60;;;1.50;;
59587;SDS011;45412;54.472;18.464;2024-03-17T13:11:21;5.80;;;1.60;;
59587;SDS011;45412;54.472;18.464;2024-03-17T13:14:07;5.80;;;1.30;;
59587;SDS011;45412;54.472;18.464;2024-03-17T13:16:59;5.30;;;1.70;;
59587;SDS011;45412;54.472;18.464;2024-03-17T13:19:46;5.00;;;1.40;;
59587;SDS011;45412;54.472;18.464;2024-03-17T13:22:32;6.00;;;1.40;;
59587;SDS011;45412;54.472;18.464;2024-03-17T13:25:20;7.10;;;1.70;;
59587;SDS011;45412;54.472;18.464;2024-03-17T13:28:09;5.60;;;1.40;;
59587;SDS011;45412;54.472;18.464;2024-03-17T13:30:56;5.50;;;1.50;;
59587;SDS011;45412;54.472;18.464;2024-03-17T13:33:42;6.40;;;1.40;;
59587;SDS011;45412;54.472;18.464;2024-03-17T13:36:29;5.10;;;1.50;;
59587;SDS011;45412;54.472;18.464;2024-03-17T13:39:15;5.80;;;1.50;;
59587;SDS011;45412;54.472;18.464;2024-03-17T13:42:05;5.50;;;1.80;;
59587;SDS011;45412;54.472;18.464;2024-03-17T13:44:51;5.80;;;1.40;;
59587;SDS011;45412;54.472;18.464;2024-03-17T13:47:42;5.90;;;1.50;;
59587;SDS011;45412;54.472;18.464;2024-03-17T13:50:36;5.90;;;1.60;;
59587;SDS011;45412;54.472;18.464;2024-03-17T13:53:24;5.00;;;1.30;;
59587;SDS011;45412;54.472;18.464;2024-03-17T13:56:11;6.70;;;1.60;;
59587;SDS011;45412;54.472;18.464;2024-03-17T13:58:59;5.20;;;1.40;;
59587;SDS011;45412;54.472;18.464;2024-03-17T14:01:45;6.40;;;1.90;;
59587;SDS011;45412;54.472;18.464;2024-03-17T14:04:32;6.80;;;1.90;;
59587;SDS011;45412;54.472;18.464;2024-03-17T14:07:19;6.20;;;1.60;;
59587;SDS011;45412;54.472;18.464;2024-03-17T14:10:05;6.70;;;1.60;;
59587;SDS011;45412;54.472;18.464;2024-03-17T14:12:54;5.80;;;1.60;;
59587;SDS011;45412;54.472;18.464;2024-03-17T14:15:43;6.60;;;1.60;;
59587;SDS011;45412;54.472;18.464;2024-03-17T14:18:31;6.40;;;2.50;;
59587;SDS011;45412;54.472;18.464;2024-03-17T14:21:18;5.10;;;1.20;;
59587;SDS011;45412;54.472;18.464;2024-03-17T14:24:04;7.70;;;1.70;;
59587;SDS011;45412;54.472;18.464;2024-03-17T14:26:52;6.30;;;1.50;;
59587;SDS011;45412;54.472;18.464;2024-03-17T14:29:39;7.20;;;1.50;;
59587;SDS011;45412;54.472;18.464;2024-03-17T14:32:25;8.70;;;2.00;;
59587;SDS011;45412;54.472;18.464;2024-03-17T14:35:16;5.90;;;1.50;;
59587;SDS011;45412;54.472;18.464;2024-03-17T14:38:04;6.30;;;1.50;;
59587;SDS011;45412;54.472;18.464;2024-03-17T14:40:52;7.00;;;1.50;;
59587;SDS011;45412;54.472;18.464;2024-03-17T14:43:39;4.70;;;1.30;;
59587;SDS011;45412;54.472;18.464;2024-03-17T14:46:26;6.80;;;1.60;;
59587;SDS011;45412;54.472;18.464;2024-03-17T14:49:13;7.40;;;1.60;;
59587;SDS011;45412;54.472;18.464;2024-03-17T14:51:59;6.50;;;1.70;;
59587;SDS011;45412;54.472;18.464;2024-03-17T14:54:46;8.50;;;1.70;;
59587;SDS011;45412;54.472;18.464;2024-03-17T14:57:32;11.00;;;2.90;;
59587;SDS011;45412;54.472;18.464;2024-03-17T15:00:18;8.40;;;2.40;;
59587;SDS011;45412;54.472;18.464;2024-03-17T15:03:06;8.10;;;1.70;;
59587;SDS011;45412;54.472;18.464;2024-03-17T15:05:53;5.70;;;1.50;;
59587;SDS011;45412;54.472;18.464;2024-03-17T15:08:40;6.30;;;1.30;;
59587;SDS011;45412;54.472;18.464;2024-03-17T15:11:27;8.00;;;2.40;;
59587;SDS011;45412;54.472;18.464;2024-03-17T15:14:14;9.20;;;1.70;;
59587;SDS011;45412;54.472;18.464;2024-03-17T15:17:00;7.50;;;1.40;;
59587;SDS011;45412;54.472;18.464;2024-03-17T15:19:47;6.40;;;1.50;;
59587;SDS011;45412;54.472;18.464;2024-03-17T15:22:34;8.10;;;2.20;;
59587;SDS011;45412;54.472;18.464;2024-03-17T15:25:20;7.00;;;1.90;;
59587;SDS011;45412;54.472;18.464;2024-03-17T15:28:08;7.80;;;1.60;;
59587;SDS011;45412;54.472;18.464;2024-03-17T15:30:54;5.10;;;1.40;;
59587;SDS011;45412;54.472;18.464;2024-03-17T15:33:40;6.10;;;1.70;;
59587;SDS011;45412;54.472;18.464;2024-03-17T15:36:26;5.70;;;1.60;;
59587;SDS011;45412;54.472;18.464;2024-03-17T15:39:12;7.20;;;1.80;;
59587;SDS011;45412;54.472;18.464;2024-03-17T15:42:03;6.60;;;1.90;;
59587;SDS011;45412;54.472;18.464;2024-03-17T15:44:51;6.80;;;1.90;;
59587;SDS011;45412;54.472;18.464;2024-03-17T15:47:38;9.60;;;1.60;;
59587;SDS011;45412;54.472;18.464;2024-03-17T15:50:25;8.30;;;1.80;;
59587;SDS011;45412;54.472;18.464;2024-03-17T15:53:11;8.40;;;2.00;;
59587;SDS011;45412;54.472;18.464;2024-03-17T15:55:59;6.20;;;1.50;;
59587;SDS011;45412;54.472;18.464;2024-03-17T15:58:50;7.00;;;1.50;;
59587;SDS011;45412;54.472;18.464;2024-03-17T16:01:36;4.90;;;1.40;;
59587;SDS011;45412;54.472;18.464;2024-03-17T16:04:23;6.30;;;1.80;;
59587;SDS011;45412;54.472;18.464;2024-03-17T16:07:12;8.10;;;1.80;;
59587;SDS011;45412;54.472;18.464;2024-03-17T16:09:58;6.00;;;1.80;;
59587;SDS011;45412;54.472;18.464;2024-03-17T16:12:45;7.90;;;1.70;;
59587;SDS011;45412;54.472;18.464;2024-03-17T16:15:31;5.50;;;1.50;;
59587;SDS011;45412;54.472;18.464;2024-03-17T16:18:18;5.40;;;2.00;;
59587;SDS011;45412;54.472;18.464;2024-03-17T16:21:10;6.70;;;1.60;;
59587;SDS011;45412;54.472;18.464;2024-03-17T16:24:08;6.60;;;2.20;;
59587;SDS011;45412;54.472;18.464;2024-03-17T16:26:57;7.90;;;2.00;;
59587;SDS011;45412;54.472;18.464;2024-03-17T16:29:44;11.70;;;2.60;;
59587;SDS011;45412;54.472;18.464;2024-03-17T16:32:31;9.70;;;2.50;;
59587;SDS011;45412;54.472;18.464;2024-03-17T16:35:17;9.10;;;2.60;;
59587;SDS011;45412;54.472;18.464;2024-03-17T16:38:04;7.10;;;2.30;;
59587;SDS011;45412;54.472;18.464;2024-03-17T16:40:50;8.40;;;1.90;;
59587;SDS011;45412;54.472;18.464;2024-03-17T16:43:58;7.80;;;1.80;;
59587;SDS011;45412;54.472;18.464;2024-03-17T16:49:51;6.60;;;2.00;;